Aviation Digital Data Service (ADDS)

Output produced by TAFs form (2052 UTC 01 March 2015)
found at http://aviationweather.gov/adds/tafs/
 
KSAF 011753Z 0118/0218 21007KT P6SM SCT045 SCT070 
     FM020000 14014G24KT P6SM FEW015 SCT070 
     FM020400 14012G22KT P6SM BKN015 
     FM021700 19010G18KT P6SM BKN040